Time;durP1;ratioP1;P1;durP2;ratioP2;P2;SDS_P1;SDS_P2;PMS_P1;PMS_P2;Temp;Humidity;BMP_temperature;BMP_pressure;BME280_temperature;BME280_humidity;BME280_pressure;Samples;Min_cycle;Max_cycle;Signal;HPM_P1;HPM_P2
2021/03/15 00:00:50;;;;;;;7.75;6.00;;;231.20;2252.80;;;;;;5087498;28;20050;-57
2021/03/15 00:03:17;;;;;;;12.00;6.55;;;231.30;2252.80;;;;;;5084991;28;20375;-57
2021/03/15 00:05:42;;;;;;;9.93;6.90;;;231.20;2252.80;;;;;;5074980;28;20025;-58
2021/03/15 00:08:09;;;;;;;12.63;6.85;;;256.00;2252.80;;;;;;5060873;28;20035;-69
2021/03/15 00:10:35;;;;;;;7.70;5.53;;;256.10;2252.80;;;;;;5063659;28;20390;-69
2021/03/15 00:13:01;;;;;;;8.60;6.57;;;256.10;2252.80;;;;;;5087138;28;20137;-63
2021/03/15 00:15:27;;;;;;;8.60;5.95;;;256.00;2252.80;;;;;;5092849;28;20131;-67
2021/03/15 00:17:53;;;;;;;7.20;5.63;;;256.00;2252.80;;;;;;5092671;28;20505;-68
2021/03/15 00:20:21;;;;;;;10.95;6.63;;;256.10;2252.80;;;;;;5092697;28;20026;-62
2021/03/15 00:22:48;;;;;;;7.45;5.63;;;231.20;2252.80;;;;;;5092321;28;20040;-66
2021/03/15 00:25:15;;;;;;;8.68;5.82;;;256.00;2252.80;;;;;;5092370;28;20055;-64
2021/03/15 00:27:42;;;;;;;7.18;6.00;;;256.00;2252.80;;;;;;5074871;28;20035;-63
2021/03/15 00:30:11;;;;;;;13.25;5.90;;;231.30;2252.80;;;;;;5092373;28;20077;-61
2021/03/15 00:32:37;;;;;;;7.93;5.63;;;231.30;2252.80;;;;;;5092756;28;20036;-68
2021/03/15 00:35:05;;;;;;;9.07;6.28;;;231.00;2252.80;;;;;;5092707;28;20035;-58
2021/03/15 00:37:31;;;;;;;8.63;6.13;;;231.00;2252.80;;;;;;5092501;28;20129;-68
2021/03/15 00:39:57;;;;;;;8.75;5.85;;;231.00;2252.80;;;;;;5092463;28;20478;-63
2021/03/15 00:42:23;;;;;;;7.15;5.78;;;231.20;2252.80;;;;;;5092542;28;20028;-59
2021/03/15 00:44:48;;;;;;;11.02;6.05;;;231.20;2252.80;;;;;;5089226;28;20095;-62
2021/03/15 00:47:14;;;;;;;8.85;5.93;;;231.20;2252.80;;;;;;5092730;28;20482;-69
2021/03/15 00:49:40;;;;;;;9.07;6.13;;;231.20;2252.80;;;;;;5095465;28;20024;-60
2021/03/15 00:52:06;;;;;;;8.73;6.80;;;231.20;2252.80;;;;;;5075468;28;20067;-60
2021/03/15 00:54:32;;;;;;;8.90;5.93;;;231.30;2252.80;;;;;;5062067;28;20171;-61
2021/03/15 00:56:57;;;;;;;11.60;7.45;;;231.10;2252.80;;;;;;5064467;28;20057;-59
2021/03/15 00:59:23;;;;;;;7.95;6.20;;;231.10;2252.80;;;;;;5056088;28;20028;-71
2021/03/15 01:01:49;;;;;;;8.55;6.57;;;231.10;2252.80;;;;;;5055427;28;20043;-64
2021/03/15 01:04:15;;;;;;;12.50;7.18;;;231.00;2252.80;;;;;;5070199;28;20043;-66
2021/03/15 01:06:42;;;;;;;8.70;6.82;;;231.10;2252.80;;;;;;5057559;28;20055;-69
2021/03/15 01:09:09;;;;;;;10.48;7.60;;;231.10;2252.80;;;;;;5075399;28;20037;-63
2021/03/15 01:11:34;;;;;;;9.27;7.50;;;231.20;2252.80;;;;;;5075562;28;20020;-66
2021/03/15 01:14:01;;;;;;;9.15;7.20;;;231.20;2252.80;;;;;;5075211;28;20039;-69
2021/03/15 01:16:26;;;;;;;11.95;7.38;;;231.20;2252.80;;;;;;5075406;28;20079;-66
2021/03/15 01:18:52;;;;;;;10.65;7.55;;;231.20;2252.80;;;;;;5075452;28;20025;-69
2021/03/15 01:21:18;;;;;;;11.25;7.28;;;231.10;2252.80;;;;;;5075636;28;20025;-65
2021/03/15 01:23:43;;;;;;;10.98;7.43;;;231.10;2252.80;;;;;;5074833;28;20041;-72
2021/03/15 01:26:09;;;;;;;9.10;7.38;;;231.00;2252.80;;;;;;5075288;28;20446;-69
2021/03/15 01:28:35;;;;;;;8.43;7.00;;;230.90;2252.80;;;;;;5075109;28;20475;-70
2021/03/15 01:31:01;;;;;;;10.57;7.53;;;230.90;2252.80;;;;;;5075187;28;20079;-67
2021/03/15 01:33:27;;;;;;;9.27;7.18;;;230.90;2252.80;;;;;;5075077;28;20398;-71
2021/03/15 01:35:53;;;;;;;9.65;7.72;;;230.80;2252.80;;;;;;5071155;28;20490;-63
2021/03/15 01:38:20;;;;;;;9.55;7.38;;;231.00;2252.80;;;;;;5054158;28;20467;-67
2021/03/15 01:40:45;;;;;;;12.70;8.15;;;230.90;2252.80;;;;;;5058076;28;20039;-68
2021/03/15 01:43:11;;;;;;;12.77;7.60;;;230.90;2252.80;;;;;;5068139;28;20470;-70
2021/03/15 01:45:38;;;;;;;10.55;7.60;;;231.00;2252.80;;;;;;5061206;28;20036;-69
2021/03/15 01:48:05;;;;;;;10.90;7.57;;;231.00;2252.80;;;;;;5073280;28;20020;-70
2021/03/15 01:50:31;;;;;;;9.82;7.85;;;231.10;2252.80;;;;;;5073955;28;20481;-67
2021/03/15 01:52:58;;;;;;;11.98;7.90;;;230.90;2252.80;;;;;;5071079;28;20041;-62
2021/03/15 01:55:24;;;;;;;10.98;8.50;;;230.80;2252.80;;;;;;5062750;28;20020;-62
2021/03/15 01:57:50;;;;;;;12.35;8.70;;;230.80;2252.80;;;;;;5073807;28;20046;-71
2021/03/15 02:00:18;;;;;;;9.80;7.25;;;230.90;2252.80;;;;;;5073749;28;20062;-61
2021/03/15 02:03:11;;;;;;;11.65;9.02;;;230.90;2252.80;;;;;;5073945;28;20029;-68
2021/03/15 02:05:38;;;;;;;9.90;7.57;;;231.00;2252.80;;;;;;5070330;28;20040;-68
2021/03/15 02:08:05;;;;;;;10.75;7.38;;;231.10;2252.80;;;;;;5073715;28;20021;-67
2021/03/15 02:10:32;;;;;;;10.80;7.85;;;231.00;2252.80;;;;;;5067049;28;20115;-70
2021/03/15 02:13:13;;;;;;;9.85;7.55;;;230.80;2252.80;;;;;;5066791;28;20025;-71
2021/03/15 02:15:39;;;;;;;12.25;7.60;;;230.90;2252.80;;;;;;5074263;28;20027;-62
2021/03/15 02:18:34;;;;;;;10.20;7.72;;;230.80;2252.80;;;;;;5075168;28;20095;-69
2021/03/15 02:21:26;;;;;;;11.40;8.15;;;230.80;2252.80;;;;;;5044715;28;20036;-59
2021/03/15 02:24:15;;;;;;;10.40;7.57;;;230.80;2252.80;;;;;;5073953;28;20064;-63
2021/03/15 02:26:52;;;;;;;11.25;7.97;;;230.80;2252.80;;;;;;5073632;28;20031;-67
2021/03/15 02:29:43;;;;;;;8.60;6.90;;;231.00;2252.80;;;;;;5073680;28;20033;-70
2021/03/15 02:32:19;;;;;;;11.80;8.00;;;231.10;2252.80;;;;;;5074482;28;20028;-65
2021/03/15 02:34:53;;;;;;;12.30;8.10;;;231.20;2252.80;;;;;;5073585;28;20399;-70
2021/03/15 02:37:25;;;;;;;12.90;7.85;;;231.10;2252.80;;;;;;5073825;28;20024;-69
2021/03/15 02:39:54;;;;;;;12.10;7.82;;;231.10;2252.80;;;;;;5073923;28;20111;-66
2021/03/15 02:42:23;;;;;;;10.20;8.48;;;231.10;2252.80;;;;;;5073814;28;20036;-69
2021/03/15 02:44:53;;;;;;;11.98;9.65;;;231.10;2252.80;;;;;;5073964;28;20071;-70
2021/03/15 02:47:23;;;;;;;12.88;9.20;;;231.00;2252.80;;;;;;5059522;28;20061;-69
2021/03/15 02:49:52;;;;;;;13.65;9.57;;;230.90;2252.80;;;;;;5052715;28;20382;-63
2021/03/15 02:52:18;;;;;;;;;;;231.00;2252.80;;;;;;5072720;28;20044;-65
2021/03/15 02:54:46;;;;;;;12.65;8.57;;;230.90;2252.80;;;;;;5082244;28;19909;-69
2021/03/15 02:57:17;;;;;;;12.13;9.65;;;230.40;2252.80;;;;;;5073346;28;20062;-69
2021/03/15 02:59:46;;;;;;;13.13;8.77;;;230.40;2252.80;;;;;;5075255;28;20036;-64
2021/03/15 03:02:13;;;;;;;10.40;8.00;;;205.60;2252.80;;;;;;5093851;28;20024;-63
2021/03/15 03:04:39;;;;;;;12.98;9.43;;;205.60;2252.80;;;;;;5078770;28;20115;-58
2021/03/15 03:07:05;;;;;;;12.90;9.90;;;205.50;2252.80;;;;;;5086005;28;20032;-65
2021/03/15 03:09:34;;;;;;;10.57;8.02;;;205.50;2252.80;;;;;;5072515;28;20091;-63
2021/03/15 03:12:01;;;;;;;;;;;205.30;2252.80;;;;;;5084109;28;20021;-66
2021/03/15 03:14:28;;;;;;;12.35;9.25;;;205.40;2252.80;;;;;;5080749;28;19915;-64
2021/03/15 03:16:56;;;;;;;13.93;9.65;;;205.30;2252.80;;;;;;5083054;28;20016;-60
2021/03/15 03:19:23;;;;;;;13.52;9.88;;;205.30;2252.80;;;;;;5078176;28;20016;-67
2021/03/15 03:21:51;;;;;;;14.23;9.88;;;205.20;2252.80;;;;;;5076157;28;20040;-65
2021/03/15 03:24:18;;;;;;;12.30;9.60;;;205.20;2252.80;;;;;;5073090;28;20458;-65
2021/03/15 03:26:45;;;;;;;12.77;9.52;;;205.10;2252.80;;;;;;5073280;28;20028;-59
2021/03/15 03:29:13;;;;;;;12.75;8.68;;;205.00;2252.80;;;;;;5072746;28;20021;-59
2021/03/15 03:31:44;;;;;;;15.10;10.13;;;204.80;2252.80;;;;;;5072830;28;20028;-61
2021/03/15 03:34:11;;;;;;;16.20;12.30;;;180.10;2252.80;;;;;;5073036;28;20032;-64
2021/03/15 03:36:37;;;;;;;17.15;10.32;;;180.10;2252.80;;;;;;5072764;28;20151;-60
2021/03/15 03:39:07;;;;;;;17.75;12.63;;;179.90;2252.80;;;;;;5072931;28;20466;-65
2021/03/15 03:41:34;;;;;;;14.38;11.35;;;179.80;2252.80;;;;;;5072847;28;20033;-61
2021/03/15 03:44:01;;;;;;;16.63;11.15;;;179.90;2252.80;;;;;;5072487;28;20075;-62
2021/03/15 03:46:26;;;;;;;14.45;10.93;;;179.80;2252.80;;;;;;5072670;28;20484;-65
2021/03/15 03:48:52;;;;;;;14.70;10.95;;;179.70;2252.80;;;;;;5072275;28;20119;-62
2021/03/15 03:51:22;;;;;;;16.45;11.63;;;179.70;2252.80;;;;;;5071459;28;20036;-66
2021/03/15 03:53:53;;;;;;;15.70;10.40;;;179.70;2252.80;;;;;;5071990;28;20032;-64
2021/03/15 03:56:24;;;;;;;16.30;11.15;;;179.60;2252.80;;;;;;5072042;28;20474;-64
2021/03/15 03:58:54;;;;;;;15.15;10.65;;;179.60;2252.80;;;;;;5083132;28;20016;-63
2021/03/15 04:01:36;;;;;;;15.60;10.65;;;179.50;2252.80;;;;;;5076565;28;20569;-66
2021/03/15 04:04:04;;;;;;;13.88;10.32;;;179.40;2252.80;;;;;;5083110;28;20046;-66
2021/03/15 04:06:31;;;;;;;16.77;11.27;;;179.30;2252.80;;;;;;5071938;28;20012;-67
2021/03/15 04:09:08;;;;;;;14.45;10.95;;;179.20;2252.80;;;;;;5071717;28;20059;-62
2021/03/15 04:11:35;;;;;;;14.52;9.93;;;179.30;2252.80;;;;;;5071688;28;20406;-64
2021/03/15 04:14:03;;;;;;;16.05;11.68;;;179.40;2252.80;;;;;;5071716;28;20066;-65
2021/03/15 04:16:32;;;;;;;13.70;10.97;;;179.30;2252.80;;;;;;5072236;28;20108;-63
2021/03/15 04:19:02;;;;;;;16.00;11.43;;;179.40;2252.80;;;;;;5085890;28;20027;-62
2021/03/15 04:21:30;;;;;;;13.43;10.32;;;179.30;2252.80;;;;;;5054733;28;20498;-65
2021/03/15 04:23:56;;;;;;;14.25;11.27;;;179.40;2252.80;;;;;;5075565;28;20037;-63
2021/03/15 04:26:25;;;;;;;16.05;10.90;;;179.50;2252.80;;;;;;5075605;28;20025;-64
2021/03/15 04:28:55;;;;;;;16.63;11.02;;;179.40;2252.80;;;;;;5075769;28;20032;-64
2021/03/15 04:31:23;;;;;;;17.05;11.40;;;179.30;2252.80;;;;;;5075286;28;20020;-62
2021/03/15 04:33:49;;;;;;;17.45;12.35;;;179.30;2252.80;;;;;;5076291;28;20029;-63
2021/03/15 04:36:18;;;;;;;18.55;13.02;;;179.30;2252.80;;;;;;5075988;28;20410;-63
2021/03/15 04:38:44;;;;;;;18.25;13.30;;;179.30;2252.80;;;;;;5076585;28;20465;-62
2021/03/15 04:41:11;;;;;;;18.40;12.18;;;179.20;2252.80;;;;;;5075705;28;20028;-62
2021/03/15 04:43:38;;;;;;;16.70;11.68;;;179.20;2252.80;;;;;;5075796;28;20052;-62
2021/03/15 04:46:06;;;;;;;15.27;10.43;;;179.30;2252.80;;;;;;5075905;28;20155;-61
2021/03/15 04:48:33;;;;;;;14.82;11.18;;;179.30;2252.80;;;;;;5075741;28;20028;-61
2021/03/15 04:51:05;;;;;;;16.48;11.48;;;179.40;2252.80;;;;;;5075811;28;20037;-60
2021/03/15 04:53:38;;;;;;;12.82;9.65;;;179.50;2252.80;;;;;;5076337;28;20043;-64
2021/03/15 04:56:10;;;;;;;12.02;9.30;;;179.40;2252.80;;;;;;5075596;28;20104;-61
2021/03/15 04:58:40;;;;;;;13.25;10.18;;;179.30;2252.80;;;;;;5076217;28;20020;-64
2021/03/15 05:01:07;;;;;;;11.60;8.90;;;179.20;2252.80;;;;;;5075412;28;20020;-61
2021/03/15 05:03:35;;;;;;;13.55;10.65;;;179.20;2252.80;;;;;;5093169;28;20020;-59
2021/03/15 05:06:01;;;;;;;14.80;9.57;;;179.20;2252.80;;;;;;5094909;28;20504;-58
2021/03/15 05:08:31;;;;;;;14.95;10.50;;;154.40;2252.80;;;;;;5083296;28;20041;-59
2021/03/15 05:11:00;;;;;;;12.77;9.50;;;154.50;2252.80;;;;;;5086014;28;20036;-58
2021/03/15 05:13:27;;;;;;;15.65;10.60;;;154.40;2252.80;;;;;;5077330;28;20052;-59
2021/03/15 05:15:54;;;;;;;12.18;9.45;;;154.40;2252.80;;;;;;5074754;28;20071;-62
2021/03/15 05:18:21;;;;;;;14.38;10.65;;;;;;;;;;5090706;28;20016;-59
2021/03/15 05:20:48;;;;;;;15.10;10.32;;;;;;;;;;5087159;28;20506;-61
2021/03/15 05:23:14;;;;;;;18.02;11.27;;;;;;;;;;5074521;28;20036;-61
2021/03/15 05:25:43;;;;;;;18.63;9.40;;;;;;;;;;5074600;28;20067;-62
2021/03/15 05:28:10;;;;;;;21.52;13.85;;;;;;;;;;5074755;28;20370;-63
2021/03/15 05:30:36;;;;;;;15.05;10.80;;;;;;;;;;5079014;28;20069;-60
2021/03/15 05:33:10;;;;;;;18.02;11.57;;;;;;;;;;5094053;28;20028;-61
2021/03/15 05:35:36;;;;;;;18.70;12.25;;;;;;;;;;5094318;28;20469;-61
2021/03/15 05:38:02;;;;;;;17.85;13.13;;;;;;;;;;5085512;28;20021;-62
2021/03/15 05:40:29;;;;;;;19.27;13.43;;;;;;;;;;5074166;28;20382;-62
2021/03/15 05:43:01;;;;;;;16.02;12.75;;;;;;;;;;5074637;28;20032;-61
2021/03/15 05:45:33;;;;;;;18.90;12.10;;;;;;;;;;5073894;28;20147;-62
2021/03/15 05:48:12;;;;;;;16.67;13.05;;;;;;;;;;5081845;28;20031;-63
2021/03/15 05:50:53;;;;;;;17.05;11.68;;;;;;;;;;5094237;28;20047;-63
2021/03/15 05:53:32;;;;;;;16.60;11.60;;;;;;;;;;5094358;28;20036;-61
2021/03/15 05:56:10;;;;;;;18.00;10.90;;;;;;;;;;5094215;28;20027;-62
2021/03/15 05:59:11;;;;;;;19.20;11.97;;;;;;;;;;5094527;28;20043;-60
2021/03/15 06:01:58;;;;;;;17.42;11.45;;;;;;;;;;5001375;28;20456;-63
2021/03/15 06:04:34;;;;;;;21.10;10.52;;;;;;;;;;5003327;28;20057;-63
2021/03/15 06:07:03;;;;;;;20.42;11.43;;;;;;;;;;4983422;28;20025;-67
2021/03/15 06:09:29;;;;;;;;;;;;;;;;;;4993986;28;20045;-61
2021/03/15 06:12:01;;;;;;;15.57;10.63;;;;;;;;;;4994507;28;20364;-62
2021/03/15 06:14:28;;;;;;;9.70;7.20;;;;;;;;;;4998141;28;20030;-62
2021/03/15 06:16:54;;;;;;;10.93;7.70;;;;;;;;;;4996274;28;20509;-62
2021/03/15 06:19:20;;;;;;;13.88;8.65;;;;;;;;;;4996611;28;20061;-62
2021/03/15 06:21:47;;;;;;;19.17;9.50;;;;;;;;;;4996231;28;20030;-62
2021/03/15 06:24:13;;;;;;;13.48;8.43;;;;;;;;;;4997347;28;20116;-62
2021/03/15 06:26:39;;;;;;;9.13;6.82;;;;;;;;;;4998331;28;20041;-62
2021/03/15 06:29:06;;;;;;;12.40;7.78;;;;;;;;;;4986365;28;20739;-62
2021/03/15 06:31:33;;;;;;;17.35;10.23;;;;;;;;;;4995864;28;20038;-63
2021/03/15 06:34:00;;;;;;;14.30;9.68;;;;;;;;;;5006552;28;20034;-62
2021/03/15 06:36:27;;;;;;;14.02;9.57;;;;;;;;;;5078992;28;20035;-62
2021/03/15 06:38:55;;;;;;;12.48;8.63;;;;;;;;;;5087377;28;20025;-62
2021/03/15 06:41:23;;;;;;;13.43;8.60;;;;;;;;;;5090769;28;20028;-62
2021/03/15 06:43:49;;;;;;;16.27;10.15;;;;;;;;;;5087388;28;20790;-62
2021/03/15 06:46:15;;;;;;;17.73;11.75;;;;;;;;;;5075426;28;20383;-62
2021/03/15 06:48:42;;;;;;;19.55;11.57;;;;;;;;;;5062816;28;20564;-67
2021/03/15 06:51:08;;;;;;;19.27;12.38;;;;;;;;;;5059182;28;20087;-67
2021/03/15 06:53:39;;;;;;;19.75;13.80;;;;;;;;;;5055197;28;20399;-67
2021/03/15 06:56:15;;;;;;;20.73;14.48;;;;;;;;;;5061638;28;20042;-68
2021/03/15 06:58:54;;;;;;;25.75;16.02;;;;;;;;;;5058253;28;20044;-68
2021/03/15 07:01:21;;;;;;;19.05;13.40;;;;;;;;;;5059751;28;20029;-69
2021/03/15 07:03:49;;;;;;;24.63;15.93;;;;;;;;;;5038965;28;20036;-67
2021/03/15 07:06:17;;;;;;;25.88;15.50;;;;;;;;;;5066502;28;20036;-68
2021/03/15 07:08:43;;;;;;;24.08;15.60;;;;;;;;;;5084813;28;20024;-68
2021/03/15 07:11:38;;;;;;;20.20;14.63;;;;;;;;;;5090900;28;20028;-69
2021/03/15 07:14:04;;;;;;;23.70;15.25;;;;;;;;;;4971766;28;20150;-67
2021/03/15 07:16:31;;;;;;;21.45;14.07;;;;;;;;;;4971863;28;20078;-67
2021/03/15 07:19:01;;;;;;;24.45;14.27;;;;;;;;;;4956270;28;20035;-68
2021/03/15 07:21:35;;;;;;;26.25;16.73;;;;;;;;;;4972212;28;20043;-69
2021/03/15 07:24:01;;;;;;;25.88;16.95;;;;;;;;;;4971849;28;20509;-68
2021/03/15 07:26:27;;;;;;;26.23;18.05;;;;;;;;;;4971824;28;20121;-67
2021/03/15 07:28:53;;;;;;;28.75;17.70;;;;;;;;;;4972017;28;20508;-68
2021/03/15 07:31:19;;;;;;;28.45;17.02;;;;;;;;;;4971668;28;20043;-66
2021/03/15 07:33:57;;;;;;;23.23;15.88;;;;;;;;;;4972117;28;20097;-67
2021/03/15 07:36:27;;;;;;;13.68;10.50;;;;;;;;;;4971777;28;20082;-68
2021/03/15 07:38:53;;;;;;;13.93;9.50;;;;;;;;;;4970912;28;20048;-69
2021/03/15 07:41:20;;;;;;;10.95;8.90;;;;;;;;;;4971983;28;20071;-62
2021/03/15 07:43:47;;;;;;;11.65;8.30;;;154.00;2252.80;;;;;;4971424;28;20047;-62
2021/03/15 07:46:24;;;;;;;12.52;8.63;;;153.90;2252.80;;;;;;4989029;28;20049;-64
2021/03/15 07:48:50;;;;;;;9.93;7.40;;;153.80;2252.80;;;;;;4990926;28;20026;-63
2021/03/15 07:51:35;;;;;;;10.75;7.50;;;154.00;2252.80;;;;;;5076069;28;20382;-63
2021/03/15 07:54:06;;;;;;;7.97;6.85;;;153.90;2252.80;;;;;;5081468;28;20517;-64
2021/03/15 07:56:33;;;;;;;11.50;7.65;;;153.80;2252.80;;;;;;5084333;28;20039;-63
2021/03/15 07:58:59;;;;;;;11.25;7.03;;;154.00;2252.80;;;;;;5085687;28;20440;-63
2021/03/15 08:01:25;;;;;;;9.90;7.30;;;154.00;2252.80;;;;;;5077740;28;20111;-63
2021/03/15 08:03:51;;;;;;;12.38;7.93;;;153.80;2252.80;;;;;;5091921;28;20072;-62
2021/03/15 08:06:18;;;;;;;8.70;7.22;;;154.10;2252.80;;;;;;5056408;28;20051;-63
2021/03/15 08:08:44;;;;;;;10.63;7.20;;;153.70;2252.80;;;;;;5072091;28;20027;-62
2021/03/15 08:11:15;;;;;;;11.02;6.70;;;153.90;2252.80;;;;;;5087569;28;20103;-63
2021/03/15 08:13:47;;;;;;;9.52;6.55;;;153.90;2252.80;;;;;;5091837;28;20028;-62
2021/03/15 08:16:15;;;;;;;10.27;6.25;;;153.70;2252.80;;;;;;5092651;28;20016;-64
2021/03/15 08:18:45;;;;;;;10.63;6.95;;;153.70;2252.80;;;;;;5092745;28;20024;-63
2021/03/15 08:21:17;;;;;;;11.27;8.10;;;153.60;2252.80;;;;;;5092559;28;20454;-62
2021/03/15 08:23:44;;;;;;;10.20;7.22;;;153.80;2252.80;;;;;;5073618;28;20128;-62
2021/03/15 08:26:12;;;;;;;8.93;7.22;;;153.60;2252.80;;;;;;5092390;28;20028;-62
2021/03/15 08:28:40;;;;;;;11.53;7.43;;;128.80;2252.80;;;;;;5076862;28;20024;-64
2021/03/15 08:31:15;;;;;;;11.45;7.57;;;;;;;;;;5071774;28;20573;-64
2021/03/15 08:33:42;;;;;;;12.80;8.65;;;128.40;2252.80;;;;;;5072391;28;20031;-63
2021/03/15 08:36:08;;;;;;;11.65;6.72;;;128.50;2252.80;;;;;;5054025;28;20021;-65
2021/03/15 08:38:35;;;;;;;12.23;7.55;;;128.10;2252.80;;;;;;5071944;28;20020;-64
2021/03/15 08:41:08;;;;;;;12.38;7.00;;;103.20;2227.20;;;;;;5072414;28;20394;-63
2021/03/15 08:43:51;;;;;;;12.48;7.47;;;128.00;2252.80;;;;;;5072141;28;20028;-63
2021/03/15 08:46:25;;;;;;;7.07;5.05;;;128.00;2252.80;;;;;;5068383;28;20344;-64
2021/03/15 08:48:59;;;;;;;10.88;6.78;;;103.20;2227.20;;;;;;5071231;28;20027;-61
2021/03/15 08:51:33;;;;;;;8.90;6.22;;;103.20;2227.20;;;;;;5063417;28;20043;-62
2021/03/15 08:54:07;;;;;;;6.43;4.53;;;103.20;2227.20;;;;;;5069924;28;20493;-61
2021/03/15 08:56:36;;;;;;;9.35;6.00;;;103.00;2227.20;;;;;;5071613;28;20029;-64
2021/03/15 08:59:06;;;;;;;8.90;5.22;;;103.20;2227.20;;;;;;5083888;28;20046;-65
2021/03/15 09:01:52;;;;;;;9.38;5.88;;;103.00;2227.20;;;;;;5085834;28;20475;-65
2021/03/15 09:04:42;;;;;;;7.75;5.90;;;103.10;2227.20;;;;;;5070931;28;20467;-64
2021/03/15 09:07:31;;;;;;;7.72;5.72;;;103.00;2227.20;;;;;;5058834;28;20021;-64
2021/03/15 09:09:57;;;;;;;;;;;103.00;2227.20;;;;;;5074369;28;20367;-63
2021/03/15 09:12:23;;;;;;;9.07;5.80;;;103.20;2227.20;;;;;;5075299;28;19905;-61
2021/03/15 09:14:57;;;;;;;8.27;6.20;;;102.90;2227.20;;;;;;5056598;28;20414;-63
2021/03/15 09:17:22;;;;;;;8.02;5.60;;;102.90;2227.20;;;;;;5074947;28;20024;-63
2021/03/15 09:19:49;;;;;;;10.32;6.82;;;102.90;2227.20;;;;;;5074479;28;20082;-66
2021/03/15 09:22:34;;;;;;;10.82;7.22;;;103.10;2227.20;;;;;;5074440;28;20048;-64
2021/03/15 09:25:20;;;;;;;9.75;6.70;;;103.20;2227.20;;;;;;5074087;28;20036;-64
2021/03/15 09:27:51;;;;;;;10.35;6.68;;;128.00;2252.80;;;;;;5068904;28;20030;-65
2021/03/15 09:30:22;;;;;;;10.82;6.68;;;103.30;2227.20;;;;;;5087556;28;20052;-64
2021/03/15 09:32:56;;;;;;;9.52;6.50;;;128.00;2252.80;;;;;;5068907;28;20351;-64
2021/03/15 09:35:30;;;;;;;8.43;5.28;;;128.20;2252.80;;;;;;5091639;28;20028;-66
2021/03/15 09:38:06;;;;;;;10.52;6.13;;;103.30;2227.20;;;;;;5069532;28;20392;-64
2021/03/15 09:40:47;;;;;;;10.23;7.15;;;128.00;2252.80;;;;;;5091079;28;20024;-63
2021/03/15 09:43:24;;;;;;;9.88;6.03;;;128.20;2252.80;;;;;;5072274;28;20645;-64
2021/03/15 09:45:58;;;;;;;10.18;6.53;;;128.00;2252.80;;;;;;5075467;28;20024;-65
2021/03/15 09:48:25;;;;;;;8.25;5.78;;;128.10;2252.80;;;;;;5059325;28;20463;-63
2021/03/15 09:50:59;;;;;;;8.45;6.22;;;103.20;2227.20;;;;;;5057985;28;20044;-62
2021/03/15 09:53:25;;;;;;;11.77;6.90;;;103.20;2227.20;;;;;;5056216;28;20418;-63
2021/03/15 09:56:05;;;;;;;10.73;5.95;;;102.90;2227.20;;;;;;5054261;28;20032;-65
2021/03/15 09:58:30;;;;;;;9.43;6.20;;;102.80;2227.20;;;;;;5070853;28;20133;-65
2021/03/15 10:00:56;;;;;;;9.45;6.35;;;102.90;2227.20;;;;;;5092827;28;20070;-64
2021/03/15 10:03:26;;;;;;;9.00;5.68;;;102.90;2227.20;;;;;;5062746;28;20037;-64
2021/03/15 10:05:57;;;;;;;11.07;7.80;;;102.90;2227.20;;;;;;5079841;28;20097;-65
2021/03/15 10:08:24;;;;;;;9.52;6.00;;;103.20;2227.20;;;;;;5092765;28;20032;-65
2021/03/15 10:10:50;;;;;;;6.85;5.03;;;128.00;2252.80;;;;;;5093483;28;20070;-65
2021/03/15 10:13:16;;;;;;;8.98;6.15;;;102.90;2227.20;;;;;;5092924;28;20027;-65
2021/03/15 10:15:45;;;;;;;10.70;6.78;;;103.00;2227.20;;;;;;5060274;28;20037;-65
2021/03/15 10:18:15;;;;;;;;;;;102.90;2227.20;;;;;;5074535;28;20388;-65
2021/03/15 10:20:41;;;;;;;8.73;5.90;;;102.60;2227.20;;;;;;5074357;28;19908;-65
2021/03/15 10:23:23;;;;;;;11.50;6.93;;;102.60;2227.20;;;;;;5073862;28;20074;-63
2021/03/15 10:26:02;;;;;;;15.75;8.23;;;102.90;2227.20;;;;;;5073536;28;20021;-65
2021/03/15 10:28:28;;;;;;;;;;;102.70;2227.20;;;;;;5074699;28;20024;-65
2021/03/15 10:30:54;;;;;;;12.30;7.75;;;102.90;2227.20;;;;;;5072759;28;19904;-65
2021/03/15 10:33:22;;;;;;;15.98;9.10;;;102.90;2227.20;;;;;;5073740;28;20378;-66
2021/03/15 10:35:52;;;;;;;18.23;10.57;;;102.70;2227.20;;;;;;5073407;28;20433;-65
2021/03/15 10:38:19;;;;;;;14.95;9.38;;;102.70;2227.20;;;;;;5073004;28;20024;-66
2021/03/15 10:40:46;;;;;;;14.23;9.35;;;102.80;2227.20;;;;;;5073326;28;20017;-65
2021/03/15 10:43:19;;;;;;;12.25;8.25;;;102.80;2227.20;;;;;;5073970;28;20036;-65
2021/03/15 10:45:46;;;;;;;19.08;10.35;;;102.70;2227.20;;;;;;5086485;28;20016;-66
2021/03/15 10:48:12;;;;;;;16.08;10.07;;;103.00;2227.20;;;;;;5062847;28;20031;-64
2021/03/15 10:50:41;;;;;;;23.75;11.57;;;103.10;2227.20;;;;;;5053984;28;20033;-64
2021/03/15 10:53:18;;;;;;;14.68;10.02;;;103.10;2227.20;;;;;;5068161;28;20043;-65
2021/03/15 10:55:45;;;;;;;14.15;10.05;;;128.00;2252.80;;;;;;5092503;28;20020;-66
2021/03/15 10:58:18;;;;;;;14.25;9.35;;;128.00;2252.80;;;;;;5093715;28;20024;-65
2021/03/15 11:00:51;;;;;;;18.50;10.93;;;128.00;2252.80;;;;;;5093527;28;20069;-65
2021/03/15 11:03:29;;;;;;;15.10;9.60;;;128.10;2252.80;;;;;;5086500;28;20032;-65
2021/03/15 11:06:08;;;;;;;15.02;9.77;;;128.10;2252.80;;;;;;5087705;28;20016;-65
2021/03/15 11:08:37;;;;;;;13.07;8.82;;;128.00;2252.80;;;;;;5068929;28;20032;-63
2021/03/15 11:11:16;;;;;;;12.90;8.88;;;128.30;2252.80;;;;;;5082991;28;20112;-62
2021/03/15 11:13:43;;;;;;;16.88;10.15;;;128.30;2252.80;;;;;;5052488;28;20025;-62
2021/03/15 11:16:20;;;;;;;15.95;10.73;;;128.30;2252.80;;;;;;5056265;28;20060;-62
2021/03/15 11:18:47;;;;;;;13.13;8.65;;;128.60;2252.80;;;;;;5069455;28;20029;-63
2021/03/15 11:21:13;;;;;;;13.82;9.10;;;128.40;2252.80;;;;;;5069668;28;20028;-65
2021/03/15 11:23:43;;;;;;;11.32;8.38;;;128.20;2252.80;;;;;;5062873;28;20043;-63
2021/03/15 11:26:14;;;;;;;12.80;8.57;;;128.20;2252.80;;;;;;5062713;28;20103;-65
2021/03/15 11:28:45;;;;;;;13.82;9.10;;;128.10;2252.80;;;;;;5071986;28;20020;-62
2021/03/15 11:31:16;;;;;;;14.07;10.23;;;128.00;2252.80;;;;;;5072152;28;20106;-63
2021/03/15 11:33:49;;;;;;;18.25;11.63;;;128.30;2252.80;;;;;;5072159;28;20107;-62
2021/03/15 11:36:17;;;;;;;17.33;11.45;;;128.50;2252.80;;;;;;5070004;28;20028;-62
2021/03/15 11:38:51;;;;;;;16.77;11.67;;;128.70;2252.80;;;;;;5072370;28;20027;-63
2021/03/15 11:41:20;;;;;;;29.98;17.92;;;128.60;2252.80;;;;;;5070024;28;20261;-63
2021/03/15 11:43:47;;;;;;;14.32;9.05;;;128.80;2252.80;;;;;;5072900;28;20041;-62
2021/03/15 11:46:13;;;;;;;21.90;12.48;;;128.20;2252.80;;;;;;5072105;28;20024;-62
2021/03/15 11:48:39;;;;;;;17.35;12.13;;;128.20;2252.80;;;;;;5087188;28;20098;-62
2021/03/15 11:51:05;;;;;;;18.67;12.57;;;128.30;2252.80;;;;;;5081591;28;20083;-62
2021/03/15 11:53:33;;;;;;;19.23;13.48;;;128.60;2252.80;;;;;;5061383;28;20067;-62
2021/03/15 11:55:59;;;;;;;202.00;92.55;;;128.60;2252.80;;;;;;5062715;28;20070;-64
2021/03/15 11:58:25;;;;;;;23.67;14.90;;;128.70;2252.80;;;;;;5066549;28;20032;-64
2021/03/15 12:00:50;;;;;;;18.05;12.40;;;128.40;2252.80;;;;;;5071889;28;20067;-60
2021/03/15 12:03:16;;;;;;;18.73;12.65;;;128.30;2252.80;;;;;;5071959;28;20040;-61
2021/03/15 12:05:42;;;;;;;26.55;16.48;;;128.80;2252.80;;;;;;5057243;28;20374;-62
2021/03/15 12:08:07;;;;;;;18.80;12.85;;;128.70;2252.80;;;;;;5071080;28;20394;-61
2021/03/15 12:10:33;;;;;;;23.48;15.80;;;128.60;2252.80;;;;;;5070777;28;20028;-63
2021/03/15 12:12:59;;;;;;;22.75;13.27;;;128.40;2252.80;;;;;;5071749;28;20036;-62
2021/03/15 12:15:26;;;;;;;19.55;12.05;;;128.20;2252.80;;;;;;5061846;28;20017;-63
2021/03/15 12:17:52;;;;;;;66.20;26.52;;;128.30;2252.80;;;;;;5051732;28;20020;-63
2021/03/15 12:20:18;;;;;;;25.05;13.73;;;128.30;2252.80;;;;;;5051784;28;20021;-63
2021/03/15 12:22:46;;;;;;;19.90;13.02;;;128.30;2252.80;;;;;;5055240;28;20040;-63
2021/03/15 12:25:12;;;;;;;18.73;12.85;;;128.30;2252.80;;;;;;5070540;28;20103;-63
2021/03/15 12:27:38;;;;;;;29.77;17.55;;;128.50;2252.80;;;;;;5068302;28;20032;-63
2021/03/15 12:30:04;;;;;;;48.88;24.70;;;128.50;2252.80;;;;;;5071540;28;20410;-62
2021/03/15 12:32:30;;;;;;;25.38;15.40;;;128.70;2252.80;;;;;;5056610;28;20033;-63
2021/03/15 12:34:56;;;;;;;32.88;22.15;;;128.60;2252.80;;;;;;5059281;28;20779;-62
2021/03/15 12:37:22;;;;;;;21.50;14.00;;;128.90;2252.80;;;;;;5056195;28;20089;-62
2021/03/15 12:39:48;;;;;;;22.77;14.88;;;153.60;2252.80;;;;;;5051834;28;20025;-62
2021/03/15 12:42:15;;;;;;;25.10;14.98;;;128.90;2252.80;;;;;;5052163;28;20538;-62